Time;durP1;ratioP1;P1;durP2;ratioP2;P2;SDS_P1;SDS_P2;PMS_P1;PMS_P2;Temp;Humidity;BMP_temperature;BMP_pressure;BME280_temperature;BME280_humidity;BME280_pressure;Samples;Min_cycle;Max_cycle;Signal;HPM_P1;HPM_P2
2022/11/24 00:02:24;;;;;;;0.17;0.10;;;;;;;6.89;100.00;100677.91;10453926;28;20116;-81
2022/11/24 00:07:26;;;;;;;0.30;0.10;;;;;;;6.93;100.00;100674.66;10421857;28;20552;-81
2022/11/24 00:12:28;;;;;;;0.17;0.17;;;;;;;6.96;100.00;100666.22;10435697;28;20091;-82
2022/11/24 00:17:31;;;;;;;0.00;0.00;;;;;;;6.93;100.00;100666.09;10435422;28;20047;-82
2022/11/24 00:22:33;;;;;;;1.45;1.35;;;;;;;6.95;100.00;100675.59;10453843;28;20481;-81
2022/11/24 00:27:35;;;;;;;0.10;0.10;;;;;;;6.87;100.00;100668.41;10438502;28;20051;-82
2022/11/24 00:32:36;;;;;;;0.13;0.13;;;;;;;6.80;100.00;100664.78;10454652;28;20449;-82
2022/11/24 00:37:38;;;;;;;0.00;0.00;;;;;;;6.81;100.00;100666.53;10438180;28;20144;-82
2022/11/24 00:42:40;;;;;;;1.10;0.47;;;;;;;6.90;100.00;100661.72;10436978;28;20127;-82
2022/11/24 00:47:42;;;;;;;0.47;0.47;;;;;;;6.79;100.00;100670.72;10428065;28;20068;-82
2022/11/24 00:52:46;;;;;;;6.93;1.55;;;;;;;6.75;100.00;100667.16;10418473;28;20053;-82
2022/11/24 00:57:48;;;;;;;0.00;0.00;;;;;;;6.79;100.00;100663.03;10452432;28;20500;-81
2022/11/24 01:02:51;;;;;;;0.10;0.03;;;;;;;6.75;100.00;100668.84;10422730;28;20029;-82
2022/11/24 01:07:53;;;;;;;0.32;0.22;;;;;;;6.60;100.00;100681.94;10434238;28;20091;-82
2022/11/24 01:12:55;;;;;;;1.08;0.47;;;;;;;6.74;100.00;100685.91;10451935;28;20033;-82
2022/11/24 01:17:57;;;;;;;0.98;0.43;;;;;;;6.81;100.00;100684.44;10417766;28;20079;-82
2022/11/24 01:22:59;;;;;;;0.00;0.00;;;;;;;6.87;100.00;100684.69;10433955;28;20053;-82
2022/11/24 01:28:01;;;;;;;0.32;0.32;;;;;;;6.91;100.00;100678.84;10433802;28;20048;-83
2022/11/24 01:33:04;;;;;;;0.47;0.47;;;;;;;6.95;100.00;100678.16;10451966;28;20092;-82
2022/11/24 01:38:05;;;;;;;0.00;0.00;;;;;;;6.86;100.00;100674.34;10451644;28;20090;-82
2022/11/24 01:43:19;;;;;;;0.17;0.17;;;;;;;6.77;100.00;100680.00;10420901;28;20072;-82
2022/11/24 01:48:26;;;;;;;0.20;0.20;;;;;;;6.76;100.00;100685.94;10454628;28;20049;-82
2022/11/24 01:53:29;;;;;;;0.00;0.00;;;;;;;6.77;100.00;100680.00;10480565;28;20052;-82
2022/11/24 01:58:33;;;;;;;0.25;0.10;;;;;;;6.73;100.00;100688.41;10444701;28;20048;-83
2022/11/24 02:03:38;;;;;;;0.15;0.15;;;;;;;6.89;100.00;100680.47;10441179;28;20526;-83
2022/11/24 02:09:08;;;;;;;0.00;0.00;;;;;;;6.88;100.00;100685.53;10441507;28;20467;-82
2022/11/24 02:14:12;;;;;;;0.00;0.00;;;;;;;6.86;100.00;100680.38;10446388;28;20080;-83
2022/11/24 02:19:27;;;;;;;4.93;0.93;;;;;;;6.93;100.00;100684.91;10423552;28;20170;-82
2022/11/24 02:24:40;;;;;;;0.00;0.00;;;;;;;6.96;100.00;100686.69;10438894;28;20048;-82
2022/11/24 02:29:42;;;;;;;0.00;0.00;;;;;;;6.93;100.00;100687.47;10425082;28;20084;-82
2022/11/24 02:34:44;;;;;;;0.10;0.10;;;;;;;7.03;100.00;100690.38;10458048;28;20485;-82
2022/11/24 02:39:47;;;;;;;2.30;1.25;;;;;;;6.94;100.00;100688.31;10439461;28;20064;-83
2022/11/24 02:44:54;;;;;;;0.00;0.00;;;;;;;6.94;100.00;100681.53;10450624;28;20128;-83
2022/11/24 02:49:56;;;;;;;0.15;0.10;;;;;;;6.95;100.00;100679.81;10439883;28;20044;-82
2022/11/24 02:55:01;;;;;;;0.47;0.40;;;;;;;6.94;100.00;100684.09;10415525;28;20041;-81
2022/11/24 03:00:03;;;;;;;0.00;0.00;;;;;;;6.88;100.00;100688.09;10434929;28;20037;-81
2022/11/24 03:05:06;;;;;;;0.00;0.00;;;;;;;7.20;100.00;100681.59;10436467;28;20095;-81
2022/11/24 03:10:08;;;;;;;0.50;0.15;;;;;;;7.17;100.00;100681.50;10438779;28;20040;-82
2022/11/24 03:15:10;;;;;;;0.00;0.00;;;;;;;7.04;100.00;100666.47;10437988;28;20131;-83
2022/11/24 03:20:13;;;;;;;0.00;0.00;;;;;;;7.09;100.00;100668.41;10455780;28;20076;-82
2022/11/24 03:25:15;;;;;;;0.03;0.03;;;;;;;6.99;100.00;100664.63;10437938;28;20037;-82
2022/11/24 03:30:17;;;;;;;0.10;0.10;;;;;;;6.97;100.00;100673.94;10437020;28;20083;-82
2022/11/24 03:35:20;;;;;;;0.05;0.05;;;;;;;6.92;100.00;100674.59;10436424;28;20045;-82
2022/11/24 03:40:22;;;;;;;0.88;0.82;;;;;;;7.01;100.00;100684.31;10430094;28;20095;-82
2022/11/24 03:45:24;;;;;;;0.30;0.20;;;;;;;7.05;100.00;100683.59;10430524;28;20045;-82
2022/11/24 03:50:58;;;;;;;0.63;0.20;;;;;;;6.95;100.00;100679.81;10454584;28;20075;-81
2022/11/24 03:56:00;;;;;;;1.65;0.40;;;;;;;7.03;100.00;100686.09;10420867;28;20049;-81
2022/11/24 04:01:03;;;;;;;0.00;0.00;;;;;;;6.98;100.00;100690.19;10424570;28;20045;-81
2022/11/24 04:06:05;;;;;;;1.75;1.10;;;;;;;6.95;100.00;100701.22;10485156;28;20033;-81
2022/11/24 04:11:07;;;;;;;0.00;0.00;;;;;;;6.94;100.00;100725.06;10453485;28;20055;-80
2022/11/24 04:16:08;;;;;;;1.30;1.20;;;;;;;7.07;100.00;100720.41;10453593;28;20124;-81
2022/11/24 04:21:10;;;;;;;0.00;0.00;;;;;;;6.94;100.00;100719.94;10435870;28;20140;-81
2022/11/24 04:26:12;;;;;;;2.15;0.47;;;;;;;7.03;100.00;100733.91;10435533;28;20041;-81
2022/11/24 04:31:14;;;;;;;0.47;0.45;;;;;;;7.12;100.00;100732.56;10435308;28;20488;-81
2022/11/24 04:36:15;;;;;;;0.00;0.00;;;;;;;7.12;100.00;100739.38;10436223;28;20084;-81
2022/11/24 04:41:17;;;;;;;0.35;0.10;;;;;;;6.93;100.00;100745.47;10434669;28;20053;-81
2022/11/24 04:46:19;;;;;;;5.35;1.50;;;;;;;6.88;100.00;100758.13;10394388;28;20065;-82
2022/11/24 04:51:22;;;;;;;1.25;0.80;;;;;;;7.02;100.00;100762.91;10449101;28;20073;-81
2022/11/24 04:56:23;;;;;;;0.52;0.38;;;;;;;7.06;100.00;100785.25;10435096;28;20326;-81
2022/11/24 05:01:26;;;;;;;3.42;0.40;;;;;;;6.97;100.00;100785.78;10433644;28;20400;-81
2022/11/24 05:06:28;;;;;;;0.40;0.40;;;;;;;7.14;100.00;100796.66;10452733;28;20087;-82
2022/11/24 05:11:29;;;;;;;0.28;0.28;;;;;;;7.24;100.00;100800.44;10433860;28;20049;-82
2022/11/24 05:16:31;;;;;;;2.28;0.85;;;;;;;7.32;100.00;100788.78;10434889;28;20053;-81
2022/11/24 05:21:33;;;;;;;0.63;0.63;;;;;;;7.23;100.00;100806.38;10454708;28;20048;-81
2022/11/24 05:26:35;;;;;;;0.90;0.40;;;;;;;7.25;100.00;100807.31;10443284;28;20056;-81
2022/11/24 05:31:36;;;;;;;1.45;0.38;;;;;;;7.19;100.00;100807.09;10441976;28;20072;-82
2022/11/24 05:36:53;;;;;;;0.00;0.00;;;;;;;7.26;100.00;100820.19;10442668;28;20037;-82
2022/11/24 05:41:55;;;;;;;0.45;0.30;;;;;;;7.39;100.00;100831.78;10441404;28;20072;-82
2022/11/24 05:46:57;;;;;;;4.57;0.63;;;;;;;7.55;100.00;100833.25;10459976;28;20033;-82
2022/11/24 05:51:59;;;;;;;1.35;0.90;;;;;;;7.76;100.00;100816.91;10442152;28;20045;-82
2022/11/24 05:57:00;;;;;;;0.35;0.35;;;;;;;7.76;100.00;100781.00;10432626;28;20041;-81
2022/11/24 06:02:02;;;;;;;0.00;0.00;;;;;;;7.66;100.00;100768.66;10458122;28;20439;-83
2022/11/24 06:07:07;;;;;;;0.13;0.10;;;;;;;7.58;100.00;100730.78;10430811;28;20052;-83
2022/11/24 06:12:10;;;;;;;0.28;0.28;;;;;;;7.54;100.00;100728.94;10458730;28;20049;-81
2022/11/24 06:17:12;;;;;;;0.88;0.82;;;;;;;7.49;100.00;100730.44;10441099;28;20455;-82
2022/11/24 06:22:14;;;;;;;0.00;0.00;;;;;;;7.45;100.00;100733.75;10495043;28;20049;-81
2022/11/24 06:27:15;;;;;;;0.00;0.00;;;;;;;7.39;100.00;100736.09;10445993;28;20053;-82
2022/11/24 06:32:17;;;;;;;0.10;0.10;;;;;;;7.41;100.00;100752.41;10422999;28;20143;-82
2022/11/24 06:37:20;;;;;;;0.00;0.00;;;;;;;7.42;100.00;100764.38;10439685;28;20045;-82
2022/11/24 06:42:22;;;;;;;0.00;0.00;;;;;;;7.36;100.00;100771.84;10438607;28;20041;-82
2022/11/24 06:47:23;;;;;;;0.00;0.00;;;;;;;7.35;100.00;100788.03;10457691;28;20045;-81
2022/11/24 06:52:25;;;;;;;2.40;0.90;;;;;;;7.34;100.00;100800.00;10455210;28;20037;-82
2022/11/24 06:57:29;;;;;;;0.13;0.10;;;;;;;7.24;100.00;100821.84;10439428;28;20049;-81
2022/11/24 07:02:31;;;;;;;0.00;0.00;;;;;;;7.16;100.00;100843.72;10438011;28;20087;-82
2022/11/24 07:07:33;;;;;;;0.20;0.17;;;;;;;7.09;100.00;100880.16;10438993;28;20465;-82
2022/11/24 07:12:35;;;;;;;0.00;0.00;;;;;;;7.08;100.00;100893.78;10455612;28;20400;-82
2022/11/24 07:17:38;;;;;;;2.30;0.52;;;;;;;6.99;100.00;100918.22;10422439;28;20098;-81
2022/11/24 07:22:42;;;;;;;0.00;0.00;;;;;;;6.92;100.00;100934.16;10455638;28;20090;-81
2022/11/24 07:27:44;;;;;;;0.00;0.00;;;;;;;6.96;100.00;100956.50;10421542;28;20068;-81
2022/11/24 07:32:45;;;;;;;0.00;0.00;;;;;;;6.93;100.00;100974.31;10437836;28;20045;-81
2022/11/24 07:37:47;;;;;;;0.45;0.13;;;;;;;6.82;100.00;100985.78;10455429;28;20094;-81
2022/11/24 07:42:49;;;;;;;1.92;0.43;;;;;;;6.84;100.00;101081.50;10435790;28;20037;-81
2022/11/24 07:47:51;;;;;;;0.00;0.00;;;;;;;6.84;100.00;101104.53;10436949;28;20056;-81
2022/11/24 07:52:52;;;;;;;1.17;0.57;;;;;;;6.85;100.00;101133.59;10453988;28;20037;-80
2022/11/24 07:57:58;;;;;;;1.38;0.15;;;;;;;6.82;100.00;101157.38;10418953;28;20091;-80
2022/11/24 08:03:00;;;;;;;0.00;0.00;;;;;;;6.78;100.00;101173.41;10453575;28;20095;-81
2022/11/24 08:08:01;;;;;;;0.00;0.00;;;;;;;6.80;100.00;101182.06;10454151;28;20052;-80
2022/11/24 08:13:03;;;;;;;0.00;0.00;;;;;;;6.84;100.00;101199.31;10435374;28;20060;-80
2022/11/24 08:18:05;;;;;;;0.00;0.00;;;;;;;6.86;100.00;101213.06;10423746;28;20045;-81
2022/11/24 08:23:07;;;;;;;0.00;0.00;;;;;;;7.02;100.00;101221.44;10435660;28;20056;-82
2022/11/24 08:28:09;;;;;;;0.10;0.10;;;;;;;7.12;100.00;101221.94;10431409;28;20052;-82
2022/11/24 08:33:11;;;;;;;0.50;0.43;;;;;;;7.14;100.00;101229.69;10446516;28;20099;-82
2022/11/24 08:38:15;;;;;;;0.30;0.08;;;;;;;7.20;100.00;101229.94;10445598;28;20037;-81
2022/11/24 08:43:17;;;;;;;2.58;0.77;;;;;;;7.33;100.00;101235.66;10449976;28;20037;-81
2022/11/24 08:48:20;;;;;;;0.03;0.03;;;;;;;7.38;100.00;101236.72;10441094;28;20412;-81
2022/11/24 08:53:22;;;;;;;0.22;0.10;;;;;;;7.53;100.00;101232.25;10460981;28;20041;-81
2022/11/24 08:58:23;;;;;;;2.47;2.35;;;;;;;7.59;100.00;101223.97;10435187;28;20488;-82
2022/11/24 09:03:25;;;;;;;0.22;0.22;;;;;;;7.69;100.00;101222.69;10443207;28;20084;-81
2022/11/24 09:08:28;;;;;;;0.73;0.45;;;;;;;7.65;100.00;101213.06;10453140;28;20049;-81
2022/11/24 09:13:30;;;;;;;0.90;0.55;;;;;;;7.71;100.00;101210.78;10434073;28;20045;-82
2022/11/24 09:18:32;;;;;;;0.55;0.55;;;;;;;7.77;100.00;101190.53;10452497;28;20041;-81
2022/11/24 09:23:33;;;;;;;0.82;0.70;;;;;;;7.86;100.00;101192.59;10467531;28;20090;-82
2022/11/24 09:28:35;;;;;;;0.20;0.20;;;;;;;8.05;100.00;101183.97;10436592;28;20531;-82
2022/11/24 09:33:37;;;;;;;0.20;0.20;;;;;;;8.25;100.00;101187.34;10427612;28;20045;-83
2022/11/24 09:38:39;;;;;;;0.32;0.28;;;;;;;8.16;100.00;101187.84;10449462;28;20429;-82
2022/11/24 09:43:44;;;;;;;0.43;0.30;;;;;;;8.38;100.00;101180.97;10424773;28;20041;-82
2022/11/24 09:48:49;;;;;;;0.95;0.32;;;;;;;8.36;100.00;101180.06;10425589;28;20449;-82
2022/11/24 09:54:09;;;;;;;0.03;0.03;;;;;;;8.21;100.00;101186.34;10433299;28;20047;-82
2022/11/24 09:59:20;;;;;;;0.57;0.22;;;;;;;8.25;100.00;101193.34;10449464;28;20099;-82
2022/11/24 10:04:36;;;;;;;0.93;0.55;;;;;;;8.32;100.00;101198.72;10425847;28;20033;-82
2022/11/24 10:10:32;;;;;;;0.38;0.38;;;;;;;8.37;100.00;101203.22;10458192;28;20049;-78
2022/11/24 10:15:46;;;;;;;0.00;0.00;;;;;;;8.54;100.00;101200.50;10439937;28;20079;-78
2022/11/24 10:20:58;;;;;;;0.00;0.00;;;;;;;8.71;100.00;101202.00;10428416;28;20041;-77
2022/11/24 10:26:00;;;;;;;0.35;0.20;;;;;;;8.81;100.00;101200.69;10435069;28;20441;-77
2022/11/24 10:31:28;;;;;;;0.93;0.65;;;;;;;9.61;100.00;101192.38;10386846;28;20057;-77
2022/11/24 10:36:46;;;;;;;0.35;0.32;;;;;;;8.91;100.00;101118.78;10402908;28;20049;-77
2022/11/24 10:42:10;;;;;;;0.10;0.03;;;;;;;9.24;100.00;101108.81;10420780;28;20045;-76
2022/11/24 10:47:21;;;;;;;0.00;0.00;;;;;;;9.49;100.00;101104.50;10403776;28;20033;-77
2022/11/24 10:52:26;;;;;;;0.32;0.20;;;;;;;10.65;100.00;101084.94;10403752;28;20052;-76
2022/11/24 10:57:33;;;;;;;0.08;0.08;;;;;;;9.41;100.00;101093.09;10419623;28;20091;-77
2022/11/24 11:02:38;;;;;;;0.00;0.00;;;;;;;9.43;100.00;101118.03;10401824;28;20053;-78
2022/11/24 11:07:40;;;;;;;1.38;0.60;;;;;;;9.73;100.00;101101.88;10402626;28;20136;-76
2022/11/24 11:12:42;;;;;;;0.35;0.32;;;;;;;9.88;100.00;101092.88;10401565;28;20038;-78
2022/11/24 11:17:45;;;;;;;0.47;0.20;;;;;;;10.66;100.00;101078.97;10420213;28;20111;-78
2022/11/24 11:22:49;;;;;;;0.10;0.10;;;;;;;10.77;100.00;101076.69;10418831;28;20049;-77
2022/11/24 11:28:30;;;;;;;3.20;0.38;;;;;;;11.13;100.00;101057.03;10401394;28;20076;-78
2022/11/24 11:33:35;;;;;;;0.38;0.10;;;;;;;11.57;100.00;101070.19;10418924;28;20041;-78
2022/11/24 11:39:00;;;;;;;0.15;0.08;;;;;;;11.61;100.00;101071.97;10400359;28;20056;-77
2022/11/24 11:44:24;;;;;;;2.15;0.40;;;;;;;11.23;100.00;101067.63;10400271;28;20055;-77
2022/11/24 11:49:26;;;;;;;0.00;0.00;;;;;;;11.15;100.00;101075.97;10400322;28;20519;-78
2022/11/24 11:54:43;;;;;;;0.00;0.00;;;;;;;11.03;100.00;101072.25;10417728;28;20068;-77
2022/11/24 12:00:03;;;;;;;5.63;1.40;;;;;;;10.39;100.00;101076.47;10400453;28;20073;-78
2022/11/24 12:05:22;;;;;;;0.00;0.00;;;;;;;10.51;100.00;101081.09;10419034;28;20053;-78
2022/11/24 12:10:30;;;;;;;0.23;0.23;;;;;;;10.71;100.00;101079.09;10417569;28;20076;-77
2022/11/24 12:15:49;;;;;;;1.45;0.75;;;;;;;10.89;100.00;101071.88;10401049;28;20096;-76
2022/11/24 12:21:16;;;;;;;1.08;0.55;;;;;;;11.11;100.00;101055.28;10400225;28;20048;-79
2022/11/24 12:26:52;;;;;;;0.20;0.00;;;;;;;11.39;100.00;101048.22;10428725;28;20045;-78
2022/11/24 12:31:56;;;;;;;0.38;0.25;;;;;;;11.57;100.00;101047.81;10424436;28;20041;-77
2022/11/24 12:37:07;;;;;;;20.60;0.65;;;;;;;11.67;100.00;101038.56;10398529;28;20465;-77
2022/11/24 12:42:17;;;;;;;0.88;0.20;;;;;;;11.26;100.00;101038.44;10416440;28;20041;-77
2022/11/24 12:47:25;;;;;;;0.05;0.05;;;;;;;11.72;100.00;101042.16;10415911;28;20069;-77
2022/11/24 12:52:50;;;;;;;0.30;0.20;;;;;;;12.35;100.00;101042.69;10397913;28;20049;-77
2022/11/24 12:58:33;;;;;;;0.00;0.00;;;;;;;11.71;100.00;101050.72;10397781;28;20056;-77
2022/11/24 13:03:38;;;;;;;0.03;0.00;;;;;;;11.31;100.00;101046.31;10415541;28;20547;-78
2022/11/24 13:08:40;;;;;;;0.00;0.00;;;;;;;11.40;100.00;101042.25;10415479;28;20064;-77
2022/11/24 13:13:59;;;;;;;7.03;0.90;;;;;;;11.62;100.00;101050.50;10414905;28;20045;-76
2022/11/24 13:19:08;;;;;;;3.00;0.93;;;;;;;10.71;100.00;101056.78;10415814;28;20136;-76
2022/11/24 13:24:16;;;;;;;0.83;0.63;;;;;;;11.25;100.00;101067.66;10397214;28;20049;-76
2022/11/24 13:29:26;;;;;;;1.50;0.17;;;;;;;11.41;100.00;101072.38;10397777;28;20718;-77
2022/11/24 13:34:37;;;;;;;0.05;0.05;;;;;;;11.13;100.00;101077.66;10414758;28;20124;-76
2022/11/24 13:39:50;;;;;;;0.55;0.20;;;;;;;10.83;100.00;101076.00;10385351;28;20469;-77
2022/11/24 13:44:54;;;;;;;0.80;0.80;;;;;;;10.97;100.00;101078.94;10445136;28;20041;-77
2022/11/24 13:56:27;;;;;;;0.03;0.03;;;;;;;10.79;100.00;101088.78;10504748;28;20495;-77
2022/11/24 14:01:35;;;;;;;0.20;0.17;;;;;;;10.61;100.00;101085.69;10487158;28;20052;-77
2022/11/24 14:06:55;;;;;;;4.93;0.82;;;;;;;10.53;100.00;101085.47;10486497;28;20507;-76
2022/11/24 14:12:06;;;;;;;1.17;0.45;;;;;;;10.29;100.00;101083.00;10486446;28;20040;-77
2022/11/24 14:17:14;;;;;;;0.25;0.15;;;;;;;10.12;100.00;101078.22;10487492;28;20041;-76
2022/11/24 14:22:21;;;;;;;0.40;0.40;;;;;;;9.94;100.00;101093.97;10485942;28;20071;-75
2022/11/24 14:27:38;;;;;;;3.70;0.60;;;;;;;9.77;100.00;101093.44;10486378;28;20072;-77
2022/11/24 14:32:41;;;;;;;0.17;0.13;;;;;;;9.71;100.00;101095.81;10485567;28;20052;-76
2022/11/24 14:37:42;;;;;;;7.43;1.27;;;;;;;9.60;100.00;101102.28;10485378;28;20136;-76
2022/11/24 14:42:49;;;;;;;0.22;0.15;;;;;;;9.39;100.00;101112.72;10485183;28;20082;-78
2022/11/24 14:47:51;;;;;;;0.00;0.00;;;;;;;9.19;100.00;101118.97;10484939;28;20053;-76
2022/11/24 14:52:57;;;;;;;1.27;0.75;;;;;;;9.01;100.00;101136.28;10484825;28;20113;-76
2022/11/24 14:57:59;;;;;;;2.85;1.15;;;;;;;8.92;100.00;101148.78;10485194;28;20040;-76
2022/11/24 15:03:00;;;;;;;0.82;0.60;;;;;;;8.59;100.00;101157.88;10484388;28;20052;-76
2022/11/24 15:08:02;;;;;;;1.02;1.00;;;;;;;8.55;100.00;101174.00;10502030;28;20051;-76
2022/11/24 15:13:18;;;;;;;0.63;0.63;;;;;;;8.40;100.00;101184.50;10484030;28;20048;-76
2022/11/24 15:18:27;;;;;;;3.40;1.35;;;;;;;8.35;100.00;101198.84;10501577;28;20476;-76
2022/11/24 15:23:31;;;;;;;4.05;3.47;;;;;;;8.37;100.00;101197.22;10502564;28;20032;-76
2022/11/24 15:28:32;;;;;;;3.83;2.40;;;;;;;8.25;100.00;101197.63;10513288;28;20051;-77
2022/11/24 15:33:34;;;;;;;3.55;0.95;;;;;;;8.01;100.00;101198.38;10519113;28;20119;-76
2022/11/24 15:38:36;;;;;;;0.28;0.20;;;;;;;7.70;100.00;101216.75;10483364;28;20048;-75
2022/11/24 15:43:39;;;;;;;0.00;0.00;;;;;;;7.60;100.00;101230.81;10501143;28;20127;-76
2022/11/24 15:55:35;;;;;;;0.55;0.30;;;;;;;7.53;100.00;101237.41;10500997;28;20032;-75
2022/11/24 16:00:36;;;;;;;0.00;0.00;;;;;;;7.30;100.00;101250.06;10500000;28;20051;-76
2022/11/24 16:05:39;;;;;;;0.55;0.32;;;;;;;7.50;100.00;101255.19;10500126;28;20048;-75
2022/11/24 16:10:42;;;;;;;0.52;0.40;;;;;;;7.24;100.00;101267.75;10500675;28;20074;-77
2022/11/24 16:15:44;;;;;;;0.00;0.00;;;;;;;7.22;100.00;101273.59;10481554;28;20047;-76
2022/11/24 16:20:48;;;;;;;3.13;0.90;;;;;;;7.27;100.00;101283.25;10499330;28;20036;-75
2022/11/24 16:25:50;;;;;;;0.22;0.13;;;;;;;7.19;100.00;101284.56;10499149;28;20036;-77
2022/11/24 16:30:51;;;;;;;1.27;0.28;;;;;;;7.29;100.00;101289.31;10499165;28;20044;-75
2022/11/24 16:35:53;;;;;;;0.10;0.08;;;;;;;7.16;100.00;101284.44;10481051;28;20048;-76
2022/11/24 16:40:55;;;;;;;0.25;0.10;;;;;;;7.11;100.00;101291.91;10480925;28;20076;-75
2022/11/24 16:46:17;;;;;;;0.57;0.13;;;;;;;7.10;100.00;101291.84;10499183;28;20047;-75
2022/11/24 16:51:22;;;;;;;0.47;0.47;;;;;;;7.09;100.00;101295.22;10498751;28;20053;-76
2022/11/24 16:56:24;;;;;;;0.00;0.00;;;;;;;7.07;100.00;101284.03;10480711;28;20072;-75
2022/11/24 17:01:25;;;;;;;0.38;0.25;;;;;;;7.02;100.00;101301.72;10498383;28;20048;-76
2022/11/24 17:06:28;;;;;;;0.35;0.30;;;;;;;6.96;100.00;101296.31;10479998;28;20052;-75
2022/11/24 17:11:29;;;;;;;0.08;0.08;;;;;;;6.85;100.00;101300.94;10480020;28;20048;-76
2022/11/24 17:16:31;;;;;;;0.43;0.25;;;;;;;6.79;100.00;101305.78;10501345;28;20056;-76
2022/11/24 17:21:33;;;;;;;0.45;0.32;;;;;;;6.72;100.00;101302.03;10489794;28;20045;-75
2022/11/24 17:26:34;;;;;;;0.52;0.50;;;;;;;6.66;100.00;101310.28;10506359;28;20063;-76
2022/11/24 17:31:38;;;;;;;22.85;9.45;;;;;;;6.68;100.00;101320.63;10488708;28;20055;-75
2022/11/24 17:36:43;;;;;;;4.90;3.40;;;;;;;6.62;100.00;101321.19;10505916;28;20391;-75
2022/11/24 17:41:45;;;;;;;1.58;1.35;;;;;;;6.57;100.00;101317.56;10505612;28;20384;-76
2022/11/24 17:46:46;;;;;;;2.53;1.40;;;;;;;6.48;100.00;101327.31;10487636;28;20041;-75
2022/11/24 17:51:49;;;;;;;0.73;0.50;;;;;;;6.35;100.00;101324.16;10487526;28;20049;-77
2022/11/24 17:56:51;;;;;;;0.57;0.20;;;;;;;6.08;100.00;101330.44;10496497;28;20465;-77
2022/11/24 18:01:52;;;;;;;5.95;0.82;;;;;;;6.07;100.00;101341.50;10441067;28;20079;-77
2022/11/24 18:06:55;;;;;;;0.40;0.30;;;;;;;6.28;100.00;101355.38;10445227;28;20049;-76
2022/11/24 18:11:56;;;;;;;1.30;0.80;;;;;;;6.10;100.00;101369.78;10464232;28;20396;-76
2022/11/24 18:16:58;;;;;;;1.23;0.65;;;;;;;6.25;100.00;101442.22;10444780;28;20041;-77
2022/11/24 18:22:00;;;;;;;0.25;0.25;;;;;;;6.41;100.00;101453.25;10463502;28;20053;-76
2022/11/24 18:27:02;;;;;;;1.17;0.95;;;;;;;6.55;100.00;101444.59;10443687;28;20041;-76
2022/11/24 18:32:04;;;;;;;0.20;0.05;;;;;;;6.75;100.00;101429.34;10445121;28;20369;-76
2022/11/24 18:37:07;;;;;;;0.17;0.17;;;;;;;6.71;100.00;101428.31;10461992;28;20056;-76
2022/11/24 18:42:10;;;;;;;0.10;0.10;;;;;;;6.74;100.00;101422.50;10444673;28;20472;-75
2022/11/24 18:47:12;;;;;;;2.67;0.65;;;;;;;7.02;100.00;101413.59;10443683;28;20484;-76
2022/11/24 18:52:13;;;;;;;0.00;0.00;;;;;;;6.88;100.00;101411.25;10443474;28;20060;-77
2022/11/24 18:57:15;;;;;;;0.00;0.00;;;;;;;6.76;100.00;101400.38;10460731;28;20045;-75
2022/11/24 19:02:17;;;;;;;0.13;0.10;;;;;;;6.71;100.00;101381.34;10460876;28;20412;-77
2022/11/24 19:07:19;;;;;;;0.22;0.20;;;;;;;6.85;100.00;101370.09;10461237;28;20212;-77
2022/11/24 19:12:21;;;;;;;0.25;0.25;;;;;;;6.88;100.00;101360.00;10441682;28;20140;-77
2022/11/24 19:17:22;;;;;;;1.95;1.83;;;;;;;6.82;100.00;101354.56;10419165;28;20092;-77
2022/11/24 19:22:24;;;;;;;0.08;0.08;;;;;;;6.67;100.00;101355.59;10418980;28;20049;-77
2022/11/24 19:27:26;;;;;;;0.65;0.57;;;;;;;6.75;100.00;101343.16;10401015;28;20041;-78
2022/11/24 19:32:30;;;;;;;0.38;0.30;;;;;;;6.85;100.00;101324.00;10401671;28;20092;-78
2022/11/24 19:37:31;;;;;;;0.20;0.20;;;;;;;7.00;100.00;101254.66;10425453;28;20044;-77
2022/11/24 19:42:33;;;;;;;1.13;0.77;;;;;;;6.87;100.00;101260.94;10460775;28;20366;-77
2022/11/24 19:47:35;;;;;;;0.57;0.57;;;;;;;6.87;100.00;101262.59;10459134;28;20044;-77
2022/11/24 19:52:37;;;;;;;0.68;0.25;;;;;;;6.89;100.00;101256.72;10441445;28;20492;-77
2022/11/24 19:57:39;;;;;;;0.00;0.00;;;;;;;6.71;100.00;101263.56;10441131;28;20423;-76
2022/11/24 20:02:40;;;;;;;0.93;0.85;;;;;;;6.78;100.00;101265.59;10458812;28;20431;-77
2022/11/24 20:07:42;;;;;;;3.35;0.98;;;;;;;6.76;100.00;101267.22;10462264;28;20071;-77
2022/11/24 20:12:44;;;;;;;1.33;0.95;;;;;;;6.59;100.00;101264.72;10462591;28;20041;-76
2022/11/24 20:17:46;;;;;;;0.47;0.40;;;;;;;6.44;100.00;101274.25;10440481;28;20055;-78
2022/11/24 20:22:47;;;;;;;1.05;0.43;;;;;;;6.45;100.00;101275.97;10440167;28;20131;-76
2022/11/24 20:27:49;;;;;;;2.80;0.52;;;;;;;6.42;100.00;101271.59;10457514;28;20044;-76
2022/11/24 20:32:51;;;;;;;0.30;0.30;;;;;;;6.28;100.00;101278.63;10441053;28;20056;-76
2022/11/24 20:37:53;;;;;;;0.38;0.30;;;;;;;6.28;100.00;101272.59;10457996;28;20048;-76
2022/11/24 20:43:06;;;;;;;1.50;0.65;;;;;;;6.23;100.00;101254.47;10424767;28;20045;-75
2022/11/24 20:48:08;;;;;;;0.45;0.45;;;;;;;6.16;100.00;101265.19;10439107;28;20059;-76
2022/11/24 20:53:10;;;;;;;0.80;0.30;;;;;;;6.16;100.00;101272.88;10456663;28;20044;-77
2022/11/24 20:58:11;;;;;;;0.88;0.32;;;;;;;6.04;100.00;101273.13;10456805;28;20051;-76
2022/11/24 21:03:13;;;;;;;0.00;0.00;;;;;;;5.99;100.00;101275.47;10439173;28;20037;-77
2022/11/24 21:08:16;;;;;;;0.35;0.20;;;;;;;5.92;100.00;101278.47;10455327;28;20048;-75
2022/11/24 21:13:18;;;;;;;0.52;0.45;;;;;;;5.90;100.00;101291.97;10422534;28;20435;-77
2022/11/24 21:18:21;;;;;;;0.30;0.05;;;;;;;5.82;100.00;101282.22;10439246;28;20041;-75
2022/11/24 21:23:22;;;;;;;0.43;0.32;;;;;;;5.68;100.00;101289.22;10457001;28;20434;-75
2022/11/24 21:28:24;;;;;;;6.65;0.80;;;;;;;5.79;100.00;101283.75;10438374;28;20045;-76
2022/11/24 21:33:26;;;;;;;0.38;0.38;;;;;;;5.81;100.00;101284.72;10439117;28;20049;-75
2022/11/24 21:38:28;;;;;;;0.00;0.00;;;;;;;5.81;100.00;101279.59;10438486;28;20053;-75
2022/11/24 21:43:31;;;;;;;0.08;0.08;;;;;;;5.84;100.00;101269.56;10438366;28;20393;-77
2022/11/24 21:48:34;;;;;;;6.68;1.10;;;;;;;5.82;100.00;101274.56;10455699;28;20045;-76
2022/11/24 21:53:37;;;;;;;0.20;0.10;;;;;;;5.97;100.00;101273.59;10438094;28;20056;-77
2022/11/24 21:58:44;;;;;;;0.00;0.00;;;;;;;5.99;100.00;101260.13;10454662;28;20136;-76
2022/11/24 22:03:49;;;;;;;0.20;0.20;;;;;;;6.03;100.00;101264.59;10440205;28;20053;-77
2022/11/24 22:08:53;;;;;;;0.03;0.03;;;;;;;6.05;100.00;101262.09;10472420;28;20048;-78
2022/11/24 22:13:55;;;;;;;0.00;0.00;;;;;;;6.14;100.00;101256.59;10463655;28;20071;-77
2022/11/24 22:18:58;;;;;;;0.10;0.10;;;;;;;6.23;100.00;101262.13;10445380;28;20045;-76
2022/11/24 22:24:00;;;;;;;0.10;0.10;;;;;;;6.28;100.00;101258.13;10462533;28;20492;-78
2022/11/24 22:29:02;;;;;;;0.00;0.00;;;;;;;6.35;100.00;101262.75;10444747;28;20131;-75
2022/11/24 22:34:04;;;;;;;0.00;0.00;;;;;;;6.36;100.00;101261.06;10444378;28;20049;-76
2022/11/24 22:39:10;;;;;;;0.47;0.47;;;;;;;6.43;100.00;101257.13;10427839;28;20144;-77
2022/11/24 22:44:12;;;;;;;4.40;0.47;;;;;;;6.54;100.00;101255.94;10427481;28;20118;-75
2022/11/24 22:49:14;;;;;;;3.55;0.28;;;;;;;6.65;100.00;101254.78;10443474;28;20404;-76
2022/11/24 22:54:17;;;;;;;0.20;0.13;;;;;;;6.68;100.00;101233.56;10443496;28;20111;-76
2022/11/24 22:59:19;;;;;;;0.10;0.10;;;;;;;6.73;100.00;101210.75;10461196;28;20080;-75
2022/11/24 23:04:21;;;;;;;0.10;0.10;;;;;;;6.70;100.00;101205.47;10442963;28;20048;-76
2022/11/24 23:09:22;;;;;;;0.55;0.43;;;;;;;6.80;100.00;101199.97;10443669;28;20056;-76
2022/11/24 23:14:25;;;;;;;0.95;0.63;;;;;;;6.66;100.00;101191.66;10442309;28;20049;-76
2022/11/24 23:19:27;;;;;;;0.00;0.00;;;;;;;6.77;100.00;101182.78;10442510;28;20059;-77
2022/11/24 23:24:31;;;;;;;0.00;0.00;;;;;;;6.74;100.00;101171.53;10443668;28;20099;-76
2022/11/24 23:29:33;;;;;;;0.00;0.00;;;;;;;6.86;100.00;101172.09;10426159;28;20049;-75
2022/11/24 23:34:34;;;;;;;0.00;0.00;;;;;;;7.04;100.00;101164.34;10441921;28;20095;-76